Terminal Aerodrome Forecast
Issued by NWS

Home | Current Version | Previous Version | Text Only | Print | Product List | Glossary On
Versions: 1 2 3 4 5 6 7 8 9 10 11 12 13 14 15 16 17 18 19 20 21
000
FTUS41 KBOX 201507 AAA
TAFBED
TAF AMD
KBED 201507Z 2015/2112 28005KT P6SM FEW070
     FM201800 27010KT P6SM VCSH BKN050
     FM210000 25005KT P6SM BKN150
     FM210500 27005KT P6SM SCT110=

USA.gov is the U.S. government's official web portal to all federal, state and local government web resources and services.